Atlanta, Georgia
Traffic Map
Current Weather Conditions
Atlanta, Georgia
Clear
Clear
68°
Feels Like: 68°
Wind Chill: 68° Ceiling: Unl
Heat Index: 68° Visibility: 10mi
Dew Point: 61° Wind: 7mph
Humidity: 78% Direction: 330° (NNW)
Pressure: 29.99in Gusts: 0mph
Raw Report DataKATL 291152Z 33006KT 10SM CLR 20/16 A2999 RMK AO2 SLP147 T02000161 10222 20189 51010 $
Traffic Incident Summary
Active as of:
Severity:
Category:
InformationThere was an issue retrieving the traffic information for this location. Please try a different location or try again shortly.
Advertisements
Track Severe Weather on mobile